Purmela, Texas
Current Conditions -  °F | °C
As of 10:55 PM on Thursday 30 Oct 2014 (Local Time) from KGOP Reporting Station
Scattered Clouds Scattered Clouds  
Wind Chill: 66°   Ceiling: Unl
Heat Index: 66°   Visibility: 10mi
Dew Point: 55°   Wind: 0mph
Humidity: 68%   Direction: NA
Pressure: 30.17"   Gusts: NA
Location:  31.48°N, 97.96°W
Report Text: KGOP 310355Z AUTO 00000KT 10SM SCT075 19/13 A3017 RMK AO2
Loading
Personal Weather Stations






























Interactive Weather Map
Tropical Storm Tracking
New forecast layout! Learn more

10-Day Weather Forecast

Advertisements
Track Severe Weather on mobile